createdAt,value
2023-02-22T00:00:44.619Z,0.00
2023-02-22T00:01:44.656Z,0.00
2023-02-22T00:02:44.673Z,0.00
2023-02-22T00:03:44.588Z,0.00
2023-02-22T00:04:44.584Z,0.00
2023-02-22T00:05:44.562Z,0.00
2023-02-22T00:06:44.580Z,0.00
2023-02-22T00:07:44.558Z,0.00
2023-02-22T00:08:44.524Z,0.00
2023-02-22T00:09:44.530Z,0.00
2023-02-22T00:10:44.505Z,0.00
2023-02-22T00:11:44.497Z,0.00
2023-02-22T00:12:44.505Z,0.00
2023-02-22T00:13:44.484Z,0.00
2023-02-22T00:14:44.460Z,0.00
2023-02-22T00:15:44.446Z,0.00
2023-02-22T00:16:44.506Z,0.00
2023-02-22T00:17:44.428Z,0.00
2023-02-22T00:18:44.433Z,0.00
2023-02-22T00:19:44.416Z,0.00
2023-02-22T00:20:44.397Z,0.00
2023-02-22T00:21:44.384Z,0.00
2023-02-22T00:22:44.401Z,0.00
2023-02-22T00:23:44.367Z,0.00
2023-02-22T00:24:44.348Z,0.00
2023-02-22T00:25:44.343Z,0.00
2023-02-22T00:26:44.329Z,0.00
2023-02-22T00:27:44.315Z,0.00
2023-02-22T00:28:44.307Z,0.00
2023-02-22T00:29:44.288Z,0.00
2023-02-22T00:30:44.283Z,0.00
2023-02-22T00:31:44.291Z,0.00
2023-02-22T00:32:44.277Z,0.00
2023-02-22T00:33:44.243Z,0.00
2023-02-22T00:34:44.239Z,0.00
2023-02-22T00:35:44.220Z,0.00
2023-02-22T00:36:44.210Z,0.00
2023-02-22T00:37:44.203Z,0.00
2023-02-22T00:38:44.226Z,0.00
2023-02-22T00:39:44.185Z,0.00
2023-02-22T00:40:44.162Z,0.00
2023-02-22T00:41:44.195Z,0.00
2023-02-22T00:42:44.141Z,0.00
2023-02-22T00:43:44.135Z,0.00
2023-02-22T00:44:44.120Z,0.00
2023-02-22T00:45:44.149Z,0.00
2023-02-22T00:46:44.106Z,0.00
2023-02-22T00:47:44.091Z,0.00
2023-02-22T00:48:44.076Z,0.00
2023-02-22T00:49:44.070Z,0.00
2023-02-22T00:50:44.059Z,0.00
2023-02-22T00:51:44.042Z,0.00
2023-02-22T00:52:44.037Z,0.00
2023-02-22T00:53:44.025Z,0.00
2023-02-22T00:54:44.035Z,0.00
2023-02-22T00:55:44.000Z,0.00
2023-02-22T00:56:43.995Z,0.00
2023-02-22T00:57:43.978Z,0.00
2023-02-22T00:58:43.969Z,0.00
2023-02-22T00:59:43.975Z,0.00
2023-02-22T01:00:43.956Z,0.00
2023-02-22T01:01:43.928Z,0.00
2023-02-22T01:02:43.917Z,0.00
2023-02-22T01:03:43.905Z,0.00
2023-02-22T01:04:43.902Z,0.00
2023-02-22T01:05:43.892Z,0.00
2023-02-22T01:06:43.873Z,0.00
2023-02-22T01:07:43.865Z,0.00
2023-02-22T01:08:43.864Z,0.00
2023-02-22T01:09:43.843Z,0.00
2023-02-22T01:10:43.863Z,0.00
2023-02-22T01:11:43.821Z,0.00
2023-02-22T01:12:43.809Z,0.00
2023-02-22T01:13:43.795Z,0.00
2023-02-22T01:14:43.788Z,0.00
2023-02-22T01:15:43.768Z,0.00
2023-02-22T01:16:43.796Z,0.00
2023-02-22T01:17:43.776Z,0.00
2023-02-22T01:18:43.745Z,0.00
2023-02-22T01:19:43.747Z,0.00
2023-02-22T01:20:43.719Z,0.00
2023-02-22T01:21:43.720Z,0.00
2023-02-22T01:22:43.700Z,0.00
2023-02-22T01:23:43.687Z,0.00
2023-02-22T01:24:43.680Z,0.00
2023-02-22T01:25:43.664Z,0.00
2023-02-22T01:26:43.677Z,0.00
2023-02-22T01:27:43.645Z,0.00
2023-02-22T01:28:43.628Z,0.00
2023-02-22T01:29:43.620Z,0.00
2023-02-22T01:30:43.729Z,0.00
2023-02-22T01:31:43.644Z,0.00
2023-02-22T01:32:43.586Z,0.00
2023-02-22T01:33:43.569Z,0.00
2023-02-22T01:34:43.571Z,0.00
2023-02-22T01:35:43.550Z,0.00
2023-02-22T01:36:43.542Z,0.00
2023-02-22T01:37:43.539Z,0.00
2023-02-22T01:38:43.518Z,0.00
2023-02-22T01:39:43.496Z,0.00
2023-02-22T01:40:43.486Z,0.00
2023-02-22T01:41:43.475Z,0.00
2023-02-22T01:42:43.498Z,0.00
2023-02-22T01:43:43.457Z,0.00
2023-02-22T01:44:43.450Z,0.00
2023-02-22T01:45:43.525Z,0.00
2023-02-22T01:46:43.424Z,0.00
2023-02-22T01:47:43.409Z,0.00
2023-02-22T01:48:43.402Z,0.00
2023-02-22T01:49:43.390Z,0.00
2023-02-22T01:50:43.385Z,0.00
2023-02-22T01:51:43.366Z,0.00
2023-02-22T01:52:43.347Z,0.00
2023-02-22T01:53:43.336Z,0.00
2023-02-22T01:54:43.340Z,0.00
2023-02-22T01:55:43.316Z,0.00
2023-02-22T01:56:43.320Z,0.00
2023-02-22T01:57:43.297Z,0.00
2023-02-22T01:58:43.314Z,0.00
2023-02-22T01:59:43.292Z,0.00
2023-02-22T02:00:43.266Z,0.00
2023-02-22T02:01:43.246Z,0.00
2023-02-22T02:02:43.239Z,0.00
2023-02-22T02:03:43.267Z,0.00
2023-02-22T02:04:43.351Z,0.00
2023-02-22T02:05:43.212Z,0.00
2023-02-22T02:06:43.203Z,0.00
2023-02-22T02:07:43.185Z,0.00
2023-02-22T02:08:43.171Z,0.00
2023-02-22T02:09:43.157Z,0.00
2023-02-22T02:10:43.159Z,0.00
2023-02-22T02:11:43.138Z,0.00
2023-02-22T02:12:43.135Z,0.00
2023-02-22T02:13:43.114Z,0.00
2023-02-22T02:14:43.121Z,0.00
2023-02-22T02:15:43.107Z,0.00
2023-02-22T02:16:43.157Z,0.00
2023-02-22T02:17:43.074Z,0.00
2023-02-22T02:18:43.063Z,0.00
2023-02-22T02:19:43.064Z,0.00
2023-02-22T02:20:43.036Z,0.00
2023-02-22T02:21:43.022Z,0.00
2023-02-22T02:22:43.032Z,0.00
2023-02-22T02:23:43.003Z,0.00
2023-02-22T02:24:42.992Z,0.00
2023-02-22T02:25:42.976Z,0.00
2023-02-22T02:26:42.967Z,0.00
2023-02-22T02:27:42.971Z,0.00
2023-02-22T02:28:42.955Z,0.00
2023-02-22T02:29:42.943Z,0.00
2023-02-22T02:30:42.941Z,0.00
2023-02-22T02:31:43.089Z,0.00
2023-02-22T02:32:42.987Z,0.00
2023-02-22T02:33:42.983Z,0.00
2023-02-22T02:34:42.889Z,0.00
2023-02-22T02:35:42.871Z,0.00
2023-02-22T02:36:42.855Z,0.00
2023-02-22T02:37:42.836Z,0.00
2023-02-22T02:38:42.913Z,0.00
2023-02-22T02:39:42.823Z,0.00
2023-02-22T02:40:42.817Z,0.00
2023-02-22T02:41:42.816Z,0.00
2023-02-22T02:42:42.795Z,0.00
2023-02-22T02:43:42.771Z,0.00
2023-02-22T02:44:42.773Z,0.00
2023-02-22T02:45:42.788Z,0.00
2023-02-22T02:46:42.768Z,0.00
2023-02-22T02:47:42.727Z,0.00
2023-02-22T02:48:42.727Z,0.00
2023-02-22T02:49:42.709Z,0.00
2023-02-22T02:50:42.709Z,0.00
2023-02-22T02:51:42.697Z,0.00
2023-02-22T02:52:42.676Z,0.00
2023-02-22T02:53:42.668Z,0.00
2023-02-22T02:54:42.650Z,0.00
2023-02-22T02:55:42.641Z,0.00
2023-02-22T02:56:42.629Z,0.00
2023-02-22T02:57:42.614Z,0.00
2023-02-22T02:58:42.621Z,0.00
2023-02-22T02:59:42.609Z,0.00
2023-02-22T03:00:42.595Z,0.00
2023-02-22T03:01:42.616Z,0.00
2023-02-22T03:02:42.581Z,0.00
2023-02-22T03:03:42.559Z,0.00
2023-02-22T03:04:42.537Z,0.00
2023-02-22T03:05:42.519Z,0.00
2023-02-22T03:06:42.512Z,0.00
2023-02-22T03:07:42.574Z,0.00
2023-02-22T03:08:42.506Z,0.00
2023-02-22T03:09:42.490Z,0.00
2023-02-22T03:10:42.478Z,0.00
2023-02-22T03:11:42.452Z,0.00
2023-02-22T03:12:42.464Z,0.00
2023-02-22T03:13:42.432Z,0.00
2023-02-22T03:14:42.455Z,0.00
2023-02-22T03:15:42.413Z,0.00
2023-02-22T03:16:42.509Z,0.00
2023-02-22T03:17:42.390Z,0.00
2023-02-22T03:18:42.417Z,0.00
2023-02-22T03:19:42.367Z,0.00
2023-02-22T03:20:42.364Z,0.00
2023-02-22T03:21:42.350Z,0.00
2023-02-22T03:22:42.334Z,0.00
2023-02-22T03:23:42.330Z,0.00
2023-02-22T03:24:42.306Z,0.00
2023-02-22T03:25:42.305Z,0.00
2023-02-22T03:26:42.294Z,0.00
2023-02-22T03:27:42.276Z,0.00
2023-02-22T03:28:42.282Z,0.00
2023-02-22T03:29:42.246Z,0.00
2023-02-22T03:30:44.258Z,0.00
2023-02-22T03:31:42.236Z,0.00
2023-02-22T03:32:42.227Z,0.00
2023-02-22T03:33:42.209Z,0.00
2023-02-22T03:34:42.236Z,0.00
2023-02-22T03:35:42.186Z,0.00
2023-02-22T03:36:42.168Z,0.00
2023-02-22T03:37:42.158Z,0.00
2023-02-22T03:38:42.156Z,0.00
2023-02-22T03:39:42.137Z,0.00
2023-02-22T03:40:42.134Z,0.00
2023-02-22T03:41:42.119Z,0.00
2023-02-22T03:42:42.109Z,0.00
2023-02-22T03:43:42.097Z,0.00
2023-02-22T03:44:42.086Z,0.00
2023-02-22T03:45:42.072Z,0.00
2023-02-22T03:46:42.149Z,0.00
2023-02-22T03:47:42.058Z,0.00
2023-02-22T03:48:42.033Z,0.00
2023-02-22T03:49:42.034Z,0.00
2023-02-22T03:50:42.048Z,0.00
2023-02-22T03:51:42.001Z,0.00
2023-02-22T03:52:41.994Z,0.00
2023-02-22T03:53:41.975Z,0.00
2023-02-22T03:54:41.975Z,0.00
2023-02-22T03:55:41.957Z,0.00
2023-02-22T03:56:41.958Z,0.00
2023-02-22T03:57:41.942Z,0.00
2023-02-22T03:58:41.925Z,0.00
2023-02-22T03:59:41.914Z,0.00
2023-02-22T04:00:41.904Z,0.00
2023-02-22T04:01:41.901Z,0.00
2023-02-22T04:02:41.977Z,0.00
2023-02-22T04:03:41.868Z,0.00
2023-02-22T04:04:42.220Z,0.00
2023-02-22T04:05:41.843Z,0.00
2023-02-22T04:06:41.875Z,0.00
2023-02-22T04:07:41.819Z,0.00
2023-02-22T04:08:41.813Z,0.00
2023-02-22T04:09:41.792Z,0.00
2023-02-22T04:10:41.788Z,0.00
2023-02-22T04:11:41.782Z,0.00
2023-02-22T04:12:41.758Z,0.00
2023-02-22T04:13:41.763Z,0.00
2023-02-22T04:14:41.749Z,0.00
2023-02-22T04:15:41.803Z,0.00
2023-02-22T04:16:41.722Z,0.00
2023-02-22T04:17:41.703Z,0.00
2023-02-22T04:18:41.698Z,0.00
2023-02-22T04:19:41.687Z,0.00
2023-02-22T04:20:41.692Z,0.00
2023-02-22T04:21:41.670Z,0.00
2023-02-22T04:22:41.709Z,0.00
2023-02-22T04:23:41.651Z,0.00
2023-02-22T04:24:41.636Z,0.00
2023-02-22T04:25:41.623Z,0.00
2023-02-22T04:26:41.644Z,0.00
2023-02-22T04:27:41.606Z,0.00
2023-02-22T04:28:41.588Z,0.00
2023-02-22T04:29:41.577Z,0.00
2023-02-22T04:30:41.623Z,0.00
2023-02-22T04:31:41.629Z,0.00
2023-02-22T04:32:41.548Z,0.00
2023-02-22T04:33:41.526Z,0.00
2023-02-22T04:34:41.520Z,0.00
2023-02-22T04:35:41.506Z,0.00
2023-02-22T04:36:41.487Z,0.00
2023-02-22T04:37:41.478Z,0.00
2023-02-22T04:38:41.490Z,0.00
2023-02-22T04:39:41.503Z,0.00
2023-02-22T04:40:41.447Z,0.00
2023-02-22T04:41:41.434Z,0.00
2023-02-22T04:42:41.427Z,0.00
2023-02-22T04:43:41.408Z,0.00
2023-02-22T04:44:41.404Z,0.00
2023-02-22T04:45:41.386Z,0.00
2023-02-22T04:46:41.402Z,0.00
2023-02-22T04:47:41.373Z,0.00
2023-02-22T04:48:41.365Z,0.00
2023-02-22T04:49:41.356Z,0.00
2023-02-22T04:50:41.329Z,0.00
2023-02-22T04:51:41.330Z,0.00
2023-02-22T04:52:41.314Z,0.00
2023-02-22T04:53:41.299Z,0.00
2023-02-22T04:54:41.314Z,0.00
2023-02-22T04:55:41.283Z,0.00
2023-02-22T04:56:41.269Z,0.00
2023-02-22T04:57:41.254Z,0.00
2023-02-22T04:58:41.252Z,0.00
2023-02-22T04:59:41.225Z,0.00
2023-02-22T05:00:41.214Z,0.00
2023-02-22T05:01:41.221Z,0.00
2023-02-22T05:02:41.260Z,0.00
2023-02-22T05:03:41.201Z,0.00
2023-02-22T05:04:41.193Z,0.00
2023-02-22T05:05:41.168Z,0.00
2023-02-22T05:06:41.151Z,0.00
2023-02-22T05:07:41.140Z,0.00
2023-02-22T05:08:41.137Z,0.00
2023-02-22T05:09:41.119Z,0.00
2023-02-22T05:10:41.131Z,0.00
2023-02-22T05:11:41.098Z,0.00
2023-02-22T05:12:41.077Z,0.00
2023-02-22T05:13:41.078Z,0.00
2023-02-22T05:14:41.061Z,0.00
2023-02-22T05:15:41.050Z,0.00
2023-02-22T05:16:41.037Z,0.00
2023-02-22T05:17:41.024Z,0.00
2023-02-22T05:18:41.015Z,0.00
2023-02-22T05:19:40.998Z,0.00
2023-02-22T05:20:42.999Z,0.00
2023-02-22T05:21:40.983Z,0.00
2023-02-22T05:22:40.962Z,0.00
2023-02-22T05:23:40.959Z,0.00
2023-02-22T05:24:40.942Z,0.00
2023-02-22T05:25:40.935Z,0.00
2023-02-22T05:26:40.966Z,0.00
2023-02-22T05:27:40.917Z,0.00
2023-02-22T05:28:40.901Z,0.00
2023-02-22T05:29:40.898Z,0.00
2023-02-22T05:30:40.953Z,0.00
2023-02-22T05:31:41.018Z,0.00
2023-02-22T05:32:40.853Z,0.00
2023-02-22T05:33:40.841Z,0.00
2023-02-22T05:34:40.831Z,0.00
2023-02-22T05:35:40.825Z,0.00
2023-02-22T05:36:40.805Z,0.00
2023-02-22T05:37:40.795Z,0.00
2023-02-22T05:38:40.780Z,0.00
2023-02-22T05:39:40.779Z,0.00
2023-02-22T05:40:40.758Z,0.00
2023-02-22T05:41:40.753Z,0.00
2023-02-22T05:42:40.765Z,0.00
2023-02-22T05:43:40.742Z,0.00
2023-02-22T05:44:40.711Z,4.00
2023-02-22T05:45:40.707Z,4.00
2023-02-22T05:46:40.761Z,4.00
2023-02-22T05:47:40.695Z,4.00
2023-02-22T05:48:40.666Z,0.00
2023-02-22T05:49:40.661Z,4.00
2023-02-22T05:50:40.683Z,4.00
2023-02-22T05:51:40.642Z,4.00
2023-02-22T05:52:40.623Z,4.00
2023-02-22T05:53:40.610Z,4.00
2023-02-22T05:54:40.618Z,4.00
2023-02-22T05:55:40.593Z,8.00
2023-02-22T05:56:40.574Z,8.00
2023-02-22T05:57:40.570Z,12.00
2023-02-22T05:58:40.593Z,8.00
2023-02-22T05:59:40.543Z,12.00
2023-02-22T06:00:40.541Z,12.00
2023-02-22T06:01:40.538Z,16.00
2023-02-22T06:02:40.504Z,16.00
2023-02-22T06:03:40.499Z,20.00
2023-02-22T06:04:40.485Z,20.00
2023-02-22T06:05:40.484Z,20.00
2023-02-22T06:06:40.460Z,24.00
2023-02-22T06:07:40.450Z,28.00
2023-02-22T06:08:40.438Z,32.00
2023-02-22T06:09:40.426Z,32.00
2023-02-22T06:10:40.419Z,36.00
2023-02-22T06:11:40.417Z,40.00
2023-02-22T06:12:40.397Z,44.00
2023-02-22T06:13:40.377Z,48.00
2023-02-22T06:14:40.392Z,52.00
2023-02-22T06:15:40.358Z,52.00
2023-02-22T06:16:40.350Z,60.00
2023-02-22T06:17:40.332Z,64.00
2023-02-22T06:18:40.335Z,64.00
2023-02-22T06:19:40.320Z,68.00
2023-02-22T06:20:40.302Z,72.00
2023-02-22T06:21:40.286Z,76.00
2023-02-22T06:22:40.283Z,80.00
2023-02-22T06:23:40.259Z,84.00
2023-02-22T06:24:42.252Z,88.00
2023-02-22T06:25:40.248Z,88.00
2023-02-22T06:26:40.252Z,96.00
2023-02-22T06:27:40.214Z,100.00
2023-02-22T06:28:40.203Z,100.00
2023-02-22T06:29:40.189Z,104.00
2023-02-22T06:30:40.368Z,108.00
2023-02-22T06:31:40.392Z,112.00
2023-02-22T06:32:40.157Z,120.00
2023-02-22T06:33:40.157Z,120.00
2023-02-22T06:34:40.131Z,132.00
2023-02-22T06:35:40.132Z,132.00
2023-02-22T06:36:40.117Z,140.00
2023-02-22T06:37:40.104Z,144.00
2023-02-22T06:38:40.092Z,152.00
2023-02-22T06:39:40.082Z,152.00
2023-02-22T06:40:40.073Z,156.00
2023-02-22T06:41:40.063Z,164.00
2023-02-22T06:42:40.042Z,172.00
2023-02-22T06:43:40.041Z,176.00
2023-02-22T06:44:40.023Z,188.00
2023-02-22T06:45:40.028Z,188.00
2023-02-22T06:46:40.105Z,192.00
2023-02-22T06:47:39.997Z,208.00
2023-02-22T06:48:39.979Z,212.00
2023-02-22T06:49:39.964Z,216.00
2023-02-22T06:50:39.952Z,224.00
2023-02-22T06:51:39.949Z,236.00
2023-02-22T06:52:39.932Z,248.00
2023-02-22T06:53:39.915Z,248.00
2023-02-22T06:54:39.911Z,248.00
2023-02-22T06:55:39.890Z,256.00
2023-02-22T06:56:39.892Z,272.00
2023-02-22T06:57:39.885Z,276.00
2023-02-22T06:58:39.861Z,280.00
2023-02-22T06:59:39.848Z,300.00
2023-02-22T07:00:39.882Z,320.00
2023-02-22T07:01:40.024Z,324.00
2023-02-22T07:02:39.837Z,316.00
2023-02-22T07:03:39.883Z,316.00
2023-02-22T07:04:42.855Z,324.00
2023-02-22T07:05:39.784Z,336.00
2023-02-22T07:06:39.770Z,344.00
2023-02-22T07:07:39.762Z,348.00
2023-02-22T07:08:39.748Z,352.00
2023-02-22T07:09:39.744Z,356.00
2023-02-22T07:10:39.725Z,364.00
2023-02-22T07:11:39.721Z,384.00
2023-02-22T07:12:39.715Z,400.00
2023-02-22T07:13:39.690Z,396.00
2023-02-22T07:14:39.683Z,396.00
2023-02-22T07:15:39.670Z,396.00
2023-02-22T07:16:39.722Z,400.00
2023-02-22T07:17:39.654Z,420.00
2023-02-22T07:18:39.686Z,428.00
2023-02-22T07:19:39.635Z,436.00
2023-02-22T07:20:39.631Z,448.00
2023-02-22T07:21:39.601Z,460.00
2023-02-22T07:22:39.603Z,472.00
2023-02-22T07:23:39.585Z,488.00
2023-02-22T07:24:39.574Z,500.00
2023-02-22T07:25:39.561Z,504.00
2023-02-22T07:26:39.550Z,504.00
2023-02-22T07:27:39.533Z,508.00
2023-02-22T07:28:39.525Z,520.00
2023-02-22T07:29:39.568Z,532.00
2023-02-22T07:30:39.526Z,548.00
2023-02-22T07:31:39.507Z,556.00
2023-02-22T07:32:39.564Z,564.00
2023-02-22T07:33:39.470Z,584.00
2023-02-22T07:34:39.482Z,604.00
2023-02-22T07:35:39.439Z,604.00
2023-02-22T07:36:39.437Z,608.00
2023-02-22T07:37:39.417Z,624.00
2023-02-22T07:38:39.404Z,636.00
2023-02-22T07:39:39.397Z,640.00
2023-02-22T07:40:39.402Z,624.00
2023-02-22T07:41:39.378Z,608.00
2023-02-22T07:42:39.373Z,616.00
2023-02-22T07:43:39.358Z,620.00
2023-02-22T07:44:39.336Z,620.00
2023-02-22T07:45:39.373Z,620.00
2023-02-22T07:46:39.313Z,620.00
2023-02-22T07:47:39.316Z,624.00
2023-02-22T07:48:39.297Z,632.00
2023-02-22T07:49:39.286Z,632.00
2023-02-22T07:50:39.301Z,624.00
2023-02-22T07:51:39.264Z,632.00
2023-02-22T07:52:39.246Z,644.00
2023-02-22T07:53:39.248Z,640.00
2023-02-22T07:54:39.231Z,628.00
2023-02-22T07:55:39.236Z,616.00
2023-02-22T07:56:39.213Z,624.00
2023-02-22T07:57:39.196Z,636.00
2023-02-22T07:58:39.184Z,640.00
2023-02-22T07:59:39.178Z,636.00
2023-02-22T08:00:39.187Z,628.00
2023-02-22T08:01:39.155Z,620.00
2023-02-22T08:02:39.196Z,604.00
2023-02-22T08:03:39.141Z,580.00
2023-02-22T08:04:39.123Z,552.00
2023-02-22T08:05:39.110Z,540.00
2023-02-22T08:06:39.126Z,532.00
2023-02-22T08:07:39.100Z,524.00
2023-02-22T08:08:39.081Z,528.00
2023-02-22T08:09:39.060Z,540.00
2023-02-22T08:10:39.053Z,540.00
2023-02-22T08:11:39.034Z,540.00
2023-02-22T08:12:39.030Z,552.00
2023-02-22T08:13:39.026Z,568.00
2023-02-22T08:14:39.017Z,588.00
2023-02-22T08:15:38.996Z,620.00
2023-02-22T08:16:39.009Z,648.00
2023-02-22T08:17:39.005Z,676.00
2023-02-22T08:18:38.956Z,696.00
2023-02-22T08:19:38.945Z,720.00
2023-02-22T08:20:38.959Z,736.00
2023-02-22T08:21:38.919Z,756.00
2023-02-22T08:22:38.999Z,768.00
2023-02-22T08:23:38.929Z,776.00
2023-02-22T08:24:38.902Z,784.00
2023-02-22T08:25:38.874Z,788.00
2023-02-22T08:26:38.872Z,788.00
2023-02-22T08:27:38.852Z,788.00
2023-02-22T08:28:38.847Z,788.00
2023-02-22T08:29:38.830Z,804.00
2023-02-22T08:30:40.430Z,824.00
2023-02-22T08:31:38.806Z,832.00
2023-02-22T08:32:38.940Z,836.00
2023-02-22T08:33:38.817Z,828.00
2023-02-22T08:34:38.774Z,828.00
2023-02-22T08:35:38.764Z,832.00
2023-02-22T08:36:38.756Z,824.00
2023-02-22T08:37:38.732Z,840.00
2023-02-22T08:38:38.751Z,852.00
2023-02-22T08:39:38.721Z,864.00
2023-02-22T08:40:38.698Z,876.00
2023-02-22T08:41:38.704Z,892.00
2023-02-22T08:42:38.682Z,896.00
2023-02-22T08:43:38.671Z,896.00
2023-02-22T08:44:38.657Z,900.00
2023-02-22T08:45:38.670Z,908.00
2023-02-22T08:46:38.632Z,916.00
2023-02-22T08:47:38.646Z,936.00
2023-02-22T08:48:38.614Z,972.00
2023-02-22T08:49:38.604Z,1004.00
2023-02-22T08:50:38.591Z,1036.00
2023-02-22T08:51:38.578Z,1060.00
2023-02-22T08:52:38.761Z,1072.00
2023-02-22T08:53:38.547Z,1080.00
2023-02-22T08:54:38.565Z,1092.00
2023-02-22T08:55:38.541Z,1116.00
2023-02-22T08:56:38.539Z,1140.00
2023-02-22T08:58:11.936Z,1144.00
2023-02-22T08:59:11.938Z,1136.00
2023-02-22T09:00:11.929Z,1132.00
2023-02-22T09:01:12.909Z,1144.00
2023-02-22T09:02:11.936Z,1160.00
2023-02-22T09:03:11.883Z,1168.00
2023-02-22T09:04:11.877Z,1164.00
2023-02-22T09:05:11.859Z,1160.00
2023-02-22T09:06:11.916Z,1164.00
2023-02-22T09:07:11.834Z,1160.00
2023-02-22T09:08:11.832Z,1148.00
2023-02-22T09:09:11.814Z,1144.00
2023-02-22T09:10:11.832Z,1160.00
2023-02-22T09:11:11.791Z,1184.00
2023-02-22T09:12:11.784Z,1192.00
2023-02-22T09:13:11.766Z,1192.00
2023-02-22T09:14:11.760Z,1196.00
2023-02-22T09:15:11.749Z,1208.00
2023-02-22T09:16:11.759Z,1236.00
2023-02-22T09:17:11.730Z,1268.00
2023-02-22T09:18:11.721Z,1300.00
2023-02-22T09:19:11.706Z,1336.00
2023-02-22T09:20:11.691Z,1388.00
2023-02-22T09:21:11.681Z,1444.00
2023-02-22T09:22:11.670Z,1492.00
2023-02-22T09:23:11.728Z,1520.00
2023-02-22T09:24:11.658Z,1464.00
2023-02-22T09:25:17.043Z,1492.00
2023-02-22T09:26:11.647Z,1512.00
2023-02-22T09:27:11.622Z,1504.00
2023-02-22T09:28:11.604Z,1480.00
2023-02-22T09:29:11.588Z,1452.00
2023-02-22T09:30:11.638Z,1436.00
2023-02-22T09:31:11.616Z,1432.00
2023-02-22T09:32:11.762Z,1440.00
2023-02-22T09:33:11.718Z,1456.00
2023-02-22T09:34:11.543Z,1464.00
2023-02-22T09:35:11.520Z,1468.00
2023-02-22T09:36:11.508Z,1452.00
2023-02-22T09:37:11.498Z,1432.00
2023-02-22T09:38:11.529Z,1428.00
2023-02-22T09:39:11.476Z,1420.00
2023-02-22T09:40:11.467Z,1444.00
2023-02-22T09:41:11.460Z,1472.00
2023-02-22T09:42:11.483Z,1488.00
2023-02-22T09:43:11.443Z,1500.00
2023-02-22T09:44:11.420Z,1516.00
2023-02-22T09:45:11.415Z,1516.00
2023-02-22T09:46:11.441Z,1516.00
2023-02-22T09:47:11.395Z,1520.00
2023-02-22T09:48:21.707Z,1528.00
2023-02-22T09:49:11.366Z,1552.00
2023-02-22T09:50:11.368Z,1596.00
2023-02-22T09:51:11.348Z,1632.00
2023-02-22T09:52:11.336Z,1648.00
2023-02-22T09:53:11.321Z,1652.00
2023-02-22T09:54:11.309Z,1672.00
2023-02-22T09:55:11.300Z,1692.00
2023-02-22T09:56:11.397Z,1692.00
2023-02-22T09:57:11.281Z,1704.00
2023-02-22T09:58:11.301Z,1728.00
2023-02-22T09:59:11.262Z,1748.00
2023-02-22T10:00:11.261Z,1776.00
2023-02-22T10:01:11.232Z,1820.00
2023-02-22T10:02:11.228Z,1872.00
2023-02-22T10:03:11.221Z,1912.00
2023-02-22T10:04:11.214Z,1944.00
2023-02-22T10:05:11.231Z,1960.00
2023-02-22T10:06:11.176Z,1976.00
2023-02-22T10:07:11.166Z,2012.00
2023-02-22T10:08:11.162Z,2044.00
2023-02-22T10:09:11.151Z,2072.00
2023-02-22T10:10:11.135Z,2116.00
2023-02-22T10:11:11.144Z,2160.00
2023-02-22T10:12:11.129Z,2208.00
2023-02-22T10:13:11.105Z,2252.00
2023-02-22T10:14:11.116Z,2296.00
2023-02-22T10:15:11.087Z,2300.00
2023-02-22T10:16:11.106Z,2292.00
2023-02-22T10:17:11.059Z,2308.00
2023-02-22T10:18:11.253Z,2336.00
2023-02-22T10:19:11.078Z,2348.00
2023-02-22T10:20:11.024Z,2360.00
2023-02-22T10:21:11.016Z,2372.00
2023-02-22T10:22:11.009Z,2400.00
2023-02-22T10:23:10.999Z,2436.00
2023-02-22T10:24:10.981Z,2492.00
2023-02-22T10:25:10.962Z,2564.00
2023-02-22T10:26:10.963Z,2652.00
2023-02-22T10:27:10.944Z,2772.00
2023-02-22T10:28:10.948Z,2912.00
2023-02-22T10:29:10.925Z,3056.00
2023-02-22T10:30:23.805Z,3220.00
2023-02-22T10:31:10.988Z,3404.00
2023-02-22T10:32:10.993Z,3540.00
2023-02-22T10:33:10.887Z,3568.00
2023-02-22T10:34:10.873Z,3608.00
2023-02-22T10:35:10.858Z,3564.00
2023-02-22T10:36:10.846Z,3468.00
2023-02-22T10:37:10.959Z,3388.00
2023-02-22T10:38:10.829Z,3304.00
2023-02-22T10:39:10.814Z,3240.00
2023-02-22T10:40:10.804Z,3184.00
2023-02-22T10:41:10.808Z,3120.00
2023-02-22T10:42:10.779Z,3068.00
2023-02-22T10:43:10.767Z,3040.00
2023-02-22T10:44:10.756Z,3008.00
2023-02-22T10:45:10.832Z,2964.00
2023-02-22T10:46:10.876Z,2892.00
2023-02-22T10:47:10.745Z,2792.00
2023-02-22T10:48:10.709Z,2672.00
2023-02-22T10:49:10.705Z,2568.00
2023-02-22T10:50:10.692Z,2508.00
2023-02-22T10:51:10.673Z,2444.00
2023-02-22T10:52:10.668Z,2392.00
2023-02-22T10:53:10.660Z,2336.00
2023-02-22T10:54:10.667Z,2264.00
2023-02-22T10:55:15.277Z,2172.00
2023-02-22T10:56:10.630Z,2084.00
2023-02-22T10:57:10.606Z,2052.00
2023-02-22T10:58:10.602Z,2036.00
2023-02-22T10:59:10.592Z,2040.00
2023-02-22T11:00:10.594Z,2052.00
2023-02-22T11:01:10.580Z,2052.00
2023-02-22T11:02:10.592Z,2048.00
2023-02-22T11:03:10.540Z,2052.00
2023-02-22T11:04:10.538Z,2048.00
2023-02-22T11:05:10.544Z,2032.00
2023-02-22T11:06:10.515Z,2024.00
2023-02-22T11:07:10.499Z,2028.00
2023-02-22T11:08:10.487Z,2028.00
2023-02-22T11:09:10.511Z,2028.00
2023-02-22T11:10:10.462Z,2028.00
2023-02-22T11:11:10.449Z,2020.00
2023-02-22T11:12:10.447Z,1996.00
2023-02-22T11:13:10.432Z,1976.00
2023-02-22T11:14:10.428Z,1944.00
2023-02-22T11:15:10.402Z,1904.00
2023-02-22T11:16:10.413Z,1860.00
2023-02-22T11:17:10.390Z,1816.00
2023-02-22T11:18:10.410Z,1788.00
2023-02-22T11:19:10.367Z,1772.00
2023-02-22T11:20:10.355Z,1760.00
2023-02-22T11:21:10.369Z,1744.00
2023-02-22T11:22:10.325Z,1708.00
2023-02-22T11:23:10.317Z,1696.00
2023-02-22T11:24:10.307Z,1712.00
2023-02-22T11:25:10.298Z,1724.00
2023-02-22T11:26:10.282Z,1732.00
2023-02-22T11:27:10.280Z,1724.00
2023-02-22T11:28:10.267Z,1708.00
2023-02-22T11:29:10.248Z,1684.00
2023-02-22T11:30:10.429Z,1644.00
2023-02-22T11:31:10.461Z,1632.00
2023-02-22T11:32:10.240Z,1628.00
2023-02-22T11:33:10.198Z,1624.00
2023-02-22T11:34:10.218Z,1616.00
2023-02-22T11:35:10.174Z,1612.00
2023-02-22T11:36:10.169Z,1608.00
2023-02-22T11:37:10.149Z,1608.00
2023-02-22T11:38:10.140Z,1596.00
2023-02-22T11:39:10.250Z,1580.00
2023-02-22T11:40:10.124Z,1584.00
2023-02-22T11:41:10.108Z,1588.00
2023-02-22T11:42:10.098Z,1592.00
2023-02-22T11:43:10.087Z,1592.00
2023-02-22T11:44:10.073Z,1612.00
2023-02-22T11:45:10.063Z,1632.00
2023-02-22T11:46:10.079Z,1636.00
2023-02-22T11:47:10.042Z,1644.00
2023-02-22T11:48:10.022Z,1644.00
2023-02-22T11:49:10.012Z,1640.00
2023-02-22T11:50:10.022Z,1648.00
2023-02-22T11:51:10.015Z,1652.00
2023-02-22T11:52:09.983Z,1660.00
2023-02-22T11:53:09.976Z,1668.00
2023-02-22T11:54:09.957Z,1652.00
2023-02-22T11:55:09.945Z,1628.00
2023-02-22T11:56:09.946Z,1624.00
2023-02-22T11:57:09.933Z,1636.00
2023-02-22T11:58:10.726Z,1652.00
2023-02-22T11:59:09.904Z,1648.00
2023-02-22T12:00:09.892Z,1632.00
2023-02-22T12:01:09.881Z,1608.00
2023-02-22T12:02:09.872Z,1616.00
2023-02-22T12:03:09.929Z,1616.00
2023-02-22T12:04:09.883Z,1616.00
2023-02-22T12:05:09.934Z,1604.00
2023-02-22T12:06:09.896Z,1568.00
2023-02-22T12:07:09.822Z,1572.00
2023-02-22T12:08:19.318Z,1656.00
2023-02-22T12:09:09.783Z,1740.00
2023-02-22T12:10:09.770Z,1792.00
2023-02-22T12:11:09.767Z,1788.00
2023-02-22T12:12:09.758Z,1760.00
2023-02-22T12:13:09.747Z,1724.00
2023-02-22T12:14:09.726Z,1696.00
2023-02-22T12:15:09.743Z,1680.00
2023-02-22T12:16:09.765Z,1664.00
2023-02-22T12:17:09.692Z,1664.00
2023-02-22T12:18:09.712Z,1680.00
2023-02-22T12:19:09.683Z,1696.00
2023-02-22T12:20:09.667Z,1692.00
2023-02-22T12:21:09.668Z,1668.00
2023-02-22T12:22:09.770Z,1644.00
2023-02-22T12:23:09.636Z,1640.00
2023-02-22T12:24:09.618Z,1656.00
2023-02-22T12:25:10.234Z,1684.00
2023-02-22T12:26:11.708Z,1716.00
2023-02-22T12:27:09.586Z,1756.00
2023-02-22T12:28:19.041Z,1800.00
2023-02-22T12:29:09.565Z,1852.00
2023-02-22T12:30:09.592Z,1916.00
2023-02-22T12:31:09.613Z,1960.00
2023-02-22T12:32:09.615Z,1976.00
2023-02-22T12:33:09.521Z,1964.00
2023-02-22T12:34:09.774Z,1956.00
2023-02-22T12:35:09.492Z,1964.00
2023-02-22T12:36:09.485Z,1980.00
2023-02-22T12:37:09.488Z,1992.00
2023-02-22T12:38:09.492Z,1992.00
2023-02-22T12:39:09.513Z,1992.00
2023-02-22T12:40:09.444Z,1988.00
2023-02-22T12:41:09.433Z,1980.00
2023-02-22T12:42:09.422Z,1968.00
2023-02-22T12:43:09.403Z,1924.00
2023-02-22T12:44:09.416Z,1888.00
2023-02-22T12:45:11.364Z,1856.00